Time;durP1;ratioP1;P1;durP2;ratioP2;P2;SDS_P1;SDS_P2;PMS_P1;PMS_P2;Temp;Humidity;BMP_temperature;BMP_pressure;BME280_temperature;BME280_humidity;BME280_pressure;Samples;Min_cycle;Max_cycle;Signal;HPM_P1;HPM_P2
2021/03/27 00:01:59;;;;;;;0.93;0.93;;;18.20;51.90;;;;;;4865077;29;20221;-66
2021/03/27 00:04:37;;;;;;;1.48;1.02;;;18.20;51.30;;;;;;4859649;29;20166;-73
2021/03/27 00:07:08;;;;;;;1.10;1.00;;;18.20;51.40;;;;;;4860687;29;20261;-65
2021/03/27 00:09:53;;;;;;;1.27;1.10;;;18.20;51.30;;;;;;4859132;29;20567;-73
2021/03/27 00:12:45;;;;;;;1.00;0.90;;;18.20;51.50;;;;;;4844400;29;20169;-67
2021/03/27 00:15:10;;;;;;;1.33;0.98;;;18.10;51.40;;;;;;4859950;29;20185;-68
2021/03/27 00:17:40;;;;;;;0.90;0.90;;;18.10;51.40;;;;;;4860451;29;20178;-68
2021/03/27 00:20:19;;;;;;;0.90;0.90;;;18.10;51.40;;;;;;4860703;29;20233;-72
2021/03/27 00:22:49;;;;;;;1.08;1.00;;;18.10;51.40;;;;;;4843891;29;20174;-68
2021/03/27 00:25:24;;;;;;;1.13;1.00;;;18.10;51.40;;;;;;4860814;29;20174;-71
2021/03/27 00:28:13;;;;;;;1.20;1.10;;;18.00;51.40;;;;;;4844161;29;20252;-67
2021/03/27 00:30:40;;;;;;;0.70;0.70;;;18.00;51.40;;;;;;4859011;29;20522;-70
2021/03/27 00:33:06;;;;;;;2.25;0.90;;;18.10;51.50;;;;;;4859531;29;20178;-71
2021/03/27 00:35:43;;;;;;;1.10;1.00;;;18.00;51.40;;;;;;4843937;29;20663;-66
2021/03/27 00:38:20;;;;;;;1.17;0.90;;;18.00;51.40;;;;;;4858846;29;20590;-67
2021/03/27 00:40:47;;;;;;;1.10;1.00;;;18.00;51.40;;;;;;4843929;29;20759;-70
2021/03/27 00:43:36;;;;;;;1.25;0.90;;;18.00;51.40;;;;;;4844093;29;20182;-67
2021/03/27 00:46:03;;;;;;;0.90;0.80;;;18.00;51.40;;;;;;4843975;29;20186;-66
2021/03/27 00:48:42;;;;;;;1.10;0.95;;;18.00;51.40;;;;;;4859094;29;20197;-67
2021/03/27 00:51:18;;;;;;;1.15;0.90;;;18.00;51.40;;;;;;4843404;29;20246;-68
2021/03/27 00:54:02;;;;;;;1.45;1.00;;;18.00;51.40;;;;;;4859411;29;20301;-66
2021/03/27 00:56:40;;;;;;;1.15;0.90;;;18.00;51.40;;;;;;4860209;29;20273;-67
2021/03/27 00:59:25;;;;;;;0.88;0.88;;;17.90;51.40;;;;;;4858687;29;20201;-66
2021/03/27 01:01:53;;;;;;;0.75;0.70;;;17.90;51.40;;;;;;4859185;29;20702;-66
2021/03/27 01:04:19;;;;;;;1.45;1.35;;;17.90;51.40;;;;;;4843667;29;20673;-65
2021/03/27 01:06:52;;;;;;;1.27;0.90;;;17.90;51.40;;;;;;4843306;29;20654;-65
2021/03/27 01:09:22;;;;;;;1.08;0.95;;;17.90;51.40;;;;;;4859267;29;20186;-66
2021/03/27 01:12:06;;;;;;;1.08;0.80;;;17.90;51.40;;;;;;4843133;29;20745;-67
2021/03/27 01:14:45;;;;;;;1.08;0.90;;;17.90;51.30;;;;;;4843420;29;20193;-70
2021/03/27 01:17:13;;;;;;;0.77;0.75;;;17.90;51.40;;;;;;4828434;29;20614;-67
2021/03/27 01:20:17;;;;;;;0.90;0.90;;;17.90;52.00;;;;;;4830042;29;20270;-67
2021/03/27 01:22:43;;;;;;;0.80;0.80;;;17.80;51.30;;;;;;4827979;29;20642;-67
2021/03/27 01:25:10;;;;;;;0.80;0.80;;;17.80;51.30;;;;;;4847362;29;20185;-67
2021/03/27 01:27:45;;;;;;;0.70;0.70;;;17.80;51.30;;;;;;4846469;29;20193;-68
2021/03/27 01:30:24;;;;;;;0.98;0.98;;;17.80;51.30;;;;;;4847266;29;20598;-66
2021/03/27 01:32:55;;;;;;;0.70;0.70;;;17.80;51.90;;;;;;4861946;29;20178;-66
2021/03/27 01:35:21;;;;;;;1.10;1.00;;;17.80;51.30;;;;;;4846977;29;20234;-72
2021/03/27 01:37:53;;;;;;;0.93;0.82;;;17.80;51.30;;;;;;4863937;29;20174;-67
2021/03/27 01:40:37;;;;;;;1.85;0.90;;;17.80;51.20;;;;;;4861711;29;20252;-66
2021/03/27 01:43:19;;;;;;;1.00;0.80;;;17.80;51.30;;;;;;4862403;29;20178;-66
2021/03/27 01:45:53;;;;;;;0.88;0.88;;;17.80;51.30;;;;;;4862423;29;20189;-66
2021/03/27 01:48:21;;;;;;;1.52;0.80;;;17.80;51.20;;;;;;4861644;29;20186;-67
2021/03/27 01:50:49;;;;;;;1.13;1.00;;;17.80;51.30;;;;;;4862449;29;20238;-69
2021/03/27 01:53:37;;;;;;;0.70;0.70;;;17.70;51.10;;;;;;4862361;29;20615;-70
2021/03/27 01:56:16;;;;;;;0.82;0.82;;;17.70;51.20;;;;;;4843518;29;20193;-67
2021/03/27 01:59:14;;;;;;;1.00;0.90;;;17.70;51.20;;;;;;4846600;29;20174;-70
2021/03/27 02:01:48;;;;;;;1.00;0.90;;;17.70;51.20;;;;;;4871640;29;20651;-67
2021/03/27 02:04:16;;;;;;;0.80;0.80;;;17.70;51.20;;;;;;4880839;29;20180;-66
2021/03/27 02:06:50;;;;;;;1.10;1.00;;;17.70;51.20;;;;;;4880410;29;20173;-65
2021/03/27 02:09:28;;;;;;;1.08;0.98;;;17.70;51.20;;;;;;4864565;29;20248;-66
2021/03/27 02:12:08;;;;;;;0.80;0.80;;;17.70;51.20;;;;;;4880613;29;20173;-67
2021/03/27 02:14:59;;;;;;;1.48;1.20;;;17.70;51.80;;;;;;4864891;29;20184;-72
2021/03/27 02:17:49;;;;;;;0.90;0.90;;;17.70;51.10;;;;;;4877570;29;20212;-68
2021/03/27 02:20:52;;;;;;;1.00;1.00;;;17.70;51.10;;;;;;4849420;29;20258;-72
2021/03/27 02:23:30;;;;;;;1.20;1.10;;;17.70;51.10;;;;;;4881173;29;20188;-67
2021/03/27 02:26:14;;;;;;;1.13;0.88;;;17.60;51.10;;;;;;4880473;29;20177;-66
2021/03/27 02:29:04;;;;;;;0.88;0.85;;;17.60;51.10;;;;;;4881203;29;20185;-66
2021/03/27 02:31:38;;;;;;;0.75;0.75;;;17.60;51.10;;;;;;4879448;29;20174;-67
2021/03/27 02:34:22;;;;;;;1.52;1.15;;;17.60;51.10;;;;;;4864590;29;20192;-66
2021/03/27 02:37:09;;;;;;;1.17;0.90;;;17.60;51.30;;;;;;4880686;29;20642;-67
2021/03/27 02:39:56;;;;;;;1.48;0.82;;;17.60;51.30;;;;;;4879653;29;20732;-68
2021/03/27 02:42:41;;;;;;;0.98;0.93;;;17.60;51.30;;;;;;4879866;29;20166;-72
2021/03/27 02:45:07;;;;;;;0.98;0.90;;;17.60;51.30;;;;;;4880406;29;20189;-68
2021/03/27 02:47:45;;;;;;;0.90;0.82;;;17.60;51.20;;;;;;4880880;29;20173;-71
2021/03/27 02:50:34;;;;;;;1.38;0.85;;;17.60;51.20;;;;;;4863612;29;20701;-67
2021/03/27 02:53:37;;;;;;;2.30;1.00;;;17.60;51.20;;;;;;4880108;29;20641;-68
2021/03/27 02:56:12;;;;;;;1.05;1.02;;;17.50;51.20;;;;;;4880912;29;20177;-67
2021/03/27 02:58:52;;;;;;;1.30;1.15;;;17.50;51.20;;;;;;4880121;29;20640;-69
2021/03/27 03:01:37;;;;;;;1.00;0.95;;;17.50;51.10;;;;;;4864287;29;20682;-67
2021/03/27 03:04:39;;;;;;;1.98;1.00;;;17.50;51.20;;;;;;4879040;29;20637;-66
2021/03/27 03:07:21;;;;;;;1.15;1.00;;;17.50;51.20;;;;;;4877149;29;20188;-70
2021/03/27 03:10:16;;;;;;;2.25;1.20;;;17.50;51.10;;;;;;4881122;29;20238;-75
2021/03/27 03:13:23;;;;;;;0.88;0.85;;;17.50;51.20;;;;;;4871329;29;20197;-73
2021/03/27 03:16:07;;;;;;;1.00;1.00;;;17.50;51.10;;;;;;4880065;29;20203;-69
2021/03/27 03:18:45;;;;;;;1.25;1.05;;;17.50;51.10;;;;;;4878553;29;20275;-68
2021/03/27 03:21:14;;;;;;;0.80;0.80;;;17.50;51.10;;;;;;4880361;29;20216;-67
2021/03/27 03:23:54;;;;;;;1.58;1.25;;;17.50;51.10;;;;;;4863584;29;20189;-68
2021/03/27 03:26:35;;;;;;;1.05;0.85;;;17.40;51.10;;;;;;4862904;29;20183;-66
2021/03/27 03:29:29;;;;;;;1.98;1.10;;;17.40;51.10;;;;;;4880298;29;20179;-67
2021/03/27 03:32:03;;;;;;;1.58;1.13;;;17.40;51.10;;;;;;4880213;29;20181;-72
2021/03/27 03:34:57;;;;;;;1.33;1.02;;;17.40;51.10;;;;;;4879412;29;20173;-68
2021/03/27 03:37:42;;;;;;;1.55;1.30;;;17.40;51.10;;;;;;4863350;29;20184;-67
2021/03/27 03:40:24;;;;;;;1.30;1.20;;;17.40;51.00;;;;;;4878169;29;20809;-72
2021/03/27 03:42:58;;;;;;;1.35;1.20;;;17.40;51.00;;;;;;4878057;29;20527;-72
2021/03/27 03:45:37;;;;;;;1.35;1.10;;;17.40;51.00;;;;;;4879888;29;20179;-68
2021/03/27 03:48:15;;;;;;;1.77;1.40;;;17.40;51.10;;;;;;4878193;29;20174;-67
2021/03/27 03:50:46;;;;;;;1.10;1.00;;;17.40;51.10;;;;;;4879776;29;20196;-67
2021/03/27 03:53:18;;;;;;;1.38;1.00;;;17.40;51.10;;;;;;4879644;29;20178;-67
2021/03/27 03:55:58;;;;;;;1.20;1.10;;;17.40;51.00;;;;;;4879879;29;20173;-67
2021/03/27 03:58:46;;;;;;;1.40;1.27;;;17.40;51.10;;;;;;4878389;29;20177;-67
2021/03/27 04:01:50;;;;;;;1.30;1.20;;;17.40;51.10;;;;;;4877897;29;20595;-67
2021/03/27 04:04:51;;;;;;;1.88;1.33;;;17.30;51.10;;;;;;4879430;29;20527;-66
2021/03/27 04:07:23;;;;;;;1.42;1.00;;;17.30;51.10;;;;;;4867817;29;20185;-66
2021/03/27 04:09:53;;;;;;;1.27;1.08;;;17.30;51.00;;;;;;4847399;29;20181;-66
2021/03/27 04:12:36;;;;;;;1.75;1.20;;;17.30;51.00;;;;;;4878187;29;20189;-67
2021/03/27 04:15:10;;;;;;;2.40;1.50;;;17.30;51.00;;;;;;4862202;29;20177;-67
2021/03/27 04:17:39;;;;;;;2.58;1.30;;;17.30;51.70;;;;;;4862792;29;20584;-68
2021/03/27 04:20:17;;;;;;;1.30;1.20;;;17.30;51.10;;;;;;4879361;29;20213;-67
2021/03/27 04:23:02;;;;;;;1.20;1.10;;;17.30;51.10;;;;;;4877437;29;20238;-67
2021/03/27 04:25:36;;;;;;;1.38;1.20;;;17.30;51.00;;;;;;4878138;29;20672;-67
2021/03/27 04:28:34;;;;;;;1.77;1.58;;;17.30;51.00;;;;;;4862805;29;20653;-67
2021/03/27 04:31:05;;;;;;;1.60;1.50;;;17.30;51.10;;;;;;4878285;29;20735;-66
2021/03/27 04:33:58;;;;;;;2.25;1.42;;;17.30;51.70;;;;;;4862441;29;20213;-67
2021/03/27 04:36:30;;;;;;;1.40;1.30;;;17.30;51.10;;;;;;4877404;29;20177;-68
2021/03/27 04:39:03;;;;;;;3.67;1.60;;;17.30;51.10;;;;;;4862710;29;20294;-67
2021/03/27 04:41:42;;;;;;;1.88;1.60;;;17.30;51.10;;;;;;4862230;29;20256;-72
2021/03/27 04:44:36;;;;;;;1.80;1.70;;;17.20;51.00;;;;;;4877260;29;20216;-72
2021/03/27 04:47:01;;;;;;;2.00;1.45;;;17.20;51.00;;;;;;4878077;29;20177;-67
2021/03/27 04:49:48;;;;;;;1.95;1.30;;;17.20;51.10;;;;;;4878969;29;20184;-66
2021/03/27 04:52:25;;;;;;;1.67;1.50;;;17.20;51.10;;;;;;4879685;29;20187;-67
2021/03/27 04:54:56;;;;;;;1.63;1.45;;;17.20;51.00;;;;;;4862174;29;20180;-67
2021/03/27 04:57:43;;;;;;;2.42;1.52;;;17.20;51.10;;;;;;4861450;29;20209;-67
2021/03/27 05:00:29;;;;;;;1.75;1.17;;;17.20;51.00;;;;;;4862285;29;20281;-67
2021/03/27 05:03:12;;;;;;;1.48;1.30;;;17.20;51.10;;;;;;4877825;29;20598;-67
2021/03/27 05:05:50;;;;;;;2.47;1.60;;;17.20;51.20;;;;;;4876953;29;20252;-67
2021/03/27 05:08:58;;;;;;;1.98;1.58;;;17.20;51.20;;;;;;4862507;29;20215;-66
2021/03/27 05:11:32;;;;;;;1.70;1.33;;;17.20;51.10;;;;;;4858395;29;20193;-68
2021/03/27 05:14:17;;;;;;;1.67;1.52;;;17.20;51.10;;;;;;4879142;29;20183;-74
2021/03/27 05:17:11;;;;;;;2.00;1.30;;;17.20;51.10;;;;;;4861863;29;20216;-68
2021/03/27 05:19:42;;;;;;;2.15;1.38;;;17.20;51.10;;;;;;4859259;29;20216;-69
2021/03/27 05:22:19;;;;;;;1.67;1.40;;;17.20;51.10;;;;;;4861987;29;20194;-67
2021/03/27 05:25:07;;;;;;;1.98;1.45;;;17.10;51.10;;;;;;4876954;29;20173;-71
2021/03/27 05:27:38;;;;;;;2.05;1.70;;;17.10;51.20;;;;;;4878558;29;20177;-70
2021/03/27 05:30:33;;;;;;;2.22;1.38;;;17.10;51.20;;;;;;4878586;29;20181;-66
2021/03/27 05:33:23;;;;;;;1.40;1.27;;;17.10;51.20;;;;;;4876883;29;20185;-66
2021/03/27 05:36:07;;;;;;;1.73;1.35;;;17.10;51.80;;;;;;4877396;29;20256;-67
2021/03/27 05:39:04;;;;;;;2.47;1.42;;;17.10;51.20;;;;;;4861724;29;20185;-68
2021/03/27 05:41:35;;;;;;;1.90;1.50;;;17.10;51.30;;;;;;4877508;29;20267;-67
2021/03/27 05:44:04;;;;;;;2.42;1.42;;;17.10;51.20;;;;;;4878429;29;20173;-67
2021/03/27 05:46:42;;;;;;;3.65;1.48;;;17.10;51.30;;;;;;4877728;29;20184;-68
2021/03/27 05:49:20;;;;;;;2.47;1.52;;;17.10;51.30;;;;;;4861857;29;20697;-72
2021/03/27 05:52:14;;;;;;;1.20;1.10;;;17.10;51.40;;;;;;4877365;29;20217;-72
2021/03/27 05:55:13;;;;;;;1.70;1.15;;;17.10;51.40;;;;;;4877658;29;20185;-67
2021/03/27 05:57:47;;;;;;;1.35;1.25;;;17.10;51.40;;;;;;4877514;29;20556;-67
2021/03/27 06:00:30;;;;;;;1.63;1.20;;;17.00;51.40;;;;;;4877855;29;20219;-66
2021/03/27 06:03:22;;;;;;;1.90;1.50;;;17.10;51.40;;;;;;4877455;29;20664;-65
2021/03/27 06:06:03;;;;;;;1.40;1.30;;;17.00;51.40;;;;;;4875679;29;20212;-68
2021/03/27 06:08:50;;;;;;;1.27;1.20;;;17.00;51.30;;;;;;4880979;29;20537;-66
2021/03/27 06:11:21;;;;;;;2.60;1.50;;;17.10;51.30;;;;;;4880679;29;20212;-66
2021/03/27 06:14:25;;;;;;;1.90;1.27;;;17.10;51.40;;;;;;4880602;29;20177;-67
2021/03/27 06:17:00;;;;;;;1.52;1.23;;;17.20;51.40;;;;;;4878393;29;20200;-69
2021/03/27 06:19:44;;;;;;;1.73;1.25;;;17.30;51.40;;;;;;4880282;29;20208;-67
2021/03/27 06:22:13;;;;;;;1.27;1.10;;;17.40;51.20;;;;;;4880918;29;20236;-67
2021/03/27 06:24:41;;;;;;;1.33;1.23;;;17.60;51.10;;;;;;4881118;29;20177;-68
2021/03/27 06:27:22;;;;;;;1.73;1.40;;;17.70;50.80;;;;;;4881520;29;20293;-66
2021/03/27 06:29:54;;;;;;;1.40;1.13;;;17.80;50.70;;;;;;4879704;29;20589;-68
2021/03/27 06:32:47;;;;;;;1.30;0.88;;;17.80;50.60;;;;;;4881256;29;20241;-66
2021/03/27 06:35:31;;;;;;;1.67;1.02;;;17.80;50.50;;;;;;4863980;29;20181;-73
2021/03/27 06:38:16;;;;;;;1.35;1.05;;;18.00;50.50;;;;;;4864501;29;20540;-67
2021/03/27 06:41:00;;;;;;;2.53;1.30;;;18.10;50.30;;;;;;4880907;29;20217;-67
2021/03/27 06:43:45;;;;;;;2.25;1.30;;;18.20;50.10;;;;;;4880294;29;20173;-73
2021/03/27 06:46:32;;;;;;;1.95;1.08;;;18.30;50.00;;;;;;4880114;29;20534;-66
2021/03/27 06:49:13;;;;;;;2.78;1.38;;;18.30;49.90;;;;;;4881043;29;20196;-66
2021/03/27 06:51:56;;;;;;;2.80;1.10;;;18.40;49.80;;;;;;4863998;29;20542;-69
2021/03/27 06:54:37;;;;;;;1.30;0.88;;;18.40;49.80;;;;;;4880668;29;20173;-66
2021/03/27 06:57:06;;;;;;;1.70;1.00;;;18.50;49.70;;;;;;4880326;29;20174;-70
2021/03/27 06:59:40;;;;;;;2.42;1.20;;;18.50;49.60;;;;;;4880564;29;20576;-67
2021/03/27 07:02:56;;;;;;;1.63;1.00;;;18.50;49.60;;;;;;4850105;29;20564;-67
2021/03/27 07:05:53;;;;;;;1.63;1.13;;;18.40;49.50;;;;;;4822537;29;20215;-72
2021/03/27 07:08:19;;;;;;;1.40;1.10;;;18.40;49.60;;;;;;4845603;29;20266;-63
2021/03/27 07:10:59;;;;;;;3.33;1.95;;;18.30;49.90;;;;;;4861490;29;20238;-66
2021/03/27 07:14:00;;;;;;;3.47;1.55;;;18.20;50.10;;;;;;4861812;29;20181;-64
2021/03/27 07:16:30;;;;;;;3.30;1.50;;;18.20;50.50;;;;;;4848214;29;20663;-67
2021/03/27 07:19:19;;;;;;;2.60;1.23;;;18.10;50.50;;;;;;4844727;29;20205;-66
2021/03/27 07:21:53;;;;;;;3.20;1.67;;;18.10;50.80;;;;;;4845312;29;20650;-66
2021/03/27 07:24:53;;;;;;;2.95;1.58;;;18.10;50.90;;;;;;4859797;29;20178;-65
2021/03/27 07:27:49;;;;;;;2.13;1.50;;;18.10;51.10;;;;;;4845022;29;20182;-67
2021/03/27 07:30:32;;;;;;;2.53;1.08;;;18.10;51.00;;;;;;4860597;29;20587;-68
2021/03/27 07:32:58;;;;;;;4.10;1.55;;;18.10;51.20;;;;;;4844584;29;20189;-66
2021/03/27 07:35:45;;;;;;;1.80;1.42;;;18.10;51.30;;;;;;4861287;29;20263;-68
2021/03/27 07:38:33;;;;;;;2.45;1.55;;;18.10;51.30;;;;;;4861441;29;20189;-67
2021/03/27 07:41:20;;;;;;;4.65;1.30;;;18.20;51.30;;;;;;4844920;29;20213;-66
2021/03/27 07:44:23;;;;;;;3.42;1.45;;;18.10;51.10;;;;;;4861436;29;20180;-66
2021/03/27 07:47:26;;;;;;;4.55;1.92;;;18.10;51.20;;;;;;4860976;29;20737;-66
2021/03/27 07:50:03;;;;;;;3.30;1.65;;;18.10;51.30;;;;;;4861364;29;20643;-66
2021/03/27 07:52:54;;;;;;;2.90;1.48;;;18.00;51.30;;;;;;4860538;29;20275;-67
2021/03/27 07:55:35;;;;;;;6.05;1.30;;;18.00;51.60;;;;;;4861059;29;20178;-66
2021/03/27 07:58:12;;;;;;;2.20;1.52;;;17.90;51.70;;;;;;4861134;29;20669;-67
2021/03/27 08:00:43;;;;;;;2.67;1.08;;;17.90;51.80;;;;;;4860195;29;20321;-66
2021/03/27 08:03:30;;;;;;;5.15;1.45;;;17.80;51.80;;;;;;4861177;29;20178;-66
2021/03/27 08:06:13;;;;;;;2.75;1.08;;;17.80;51.90;;;;;;4861098;29;20177;-66
2021/03/27 08:09:04;;;;;;;5.80;1.35;;;17.80;52.00;;;;;;4859130;29;20752;-67
2021/03/27 08:11:57;;;;;;;1.85;1.30;;;17.80;52.70;;;;;;4859584;29;20178;-65
2021/03/27 08:14:49;;;;;;;3.13;1.27;;;17.90;52.20;;;;;;4858930;29;20182;-67
2021/03/27 08:17:24;;;;;;;3.67;1.83;;;17.90;52.20;;;;;;4846218;29;20194;-67
2021/03/27 08:20:11;;;;;;;2.17;1.20;;;17.90;52.20;;;;;;4859325;29;20590;-66
2021/03/27 08:22:55;;;;;;;3.78;1.30;;;17.90;52.30;;;;;;4858788;29;20229;-68
2021/03/27 08:25:37;;;;;;;2.33;1.25;;;17.80;52.20;;;;;;4843938;29;20548;-65
2021/03/27 08:28:26;;;;;;;2.53;1.65;;;17.80;52.40;;;;;;4858724;29;20642;-64
2021/03/27 08:31:18;;;;;;;2.40;1.50;;;17.80;52.40;;;;;;4841196;29;20194;-63
2021/03/27 08:34:01;;;;;;;2.17;1.15;;;17.80;52.40;;;;;;4859622;29;20303;-66
2021/03/27 08:36:44;;;;;;;3.33;1.85;;;17.80;52.50;;;;;;4843235;29;20217;-67
2021/03/27 08:39:16;;;;;;;2.70;1.35;;;17.80;52.60;;;;;;4860488;29;20177;-67
2021/03/27 08:42:03;;;;;;;4.72;1.63;;;17.80;52.50;;;;;;4859902;29;20181;-65
2021/03/27 08:44:41;;;;;;;3.95;1.55;;;17.80;52.50;;;;;;4859182;29;20209;-69
2021/03/27 08:47:45;;;;;;;5.28;1.30;;;17.80;52.60;;;;;;4859602;29;21115;-64
2021/03/27 08:50:28;;;;;;;3.72;1.60;;;17.70;52.60;;;;;;4859113;29;20177;-66
2021/03/27 08:53:05;;;;;;;2.75;1.38;;;17.70;52.50;;;;;;4860609;29;20206;-65
2021/03/27 08:56:06;;;;;;;3.13;1.40;;;17.60;52.50;;;;;;4860123;29;20181;-66
2021/03/27 08:58:47;;;;;;;4.95;1.38;;;17.70;52.60;;;;;;4822386;29;20289;-64
2021/03/27 09:01:27;;;;;;;3.40;1.35;;;17.80;52.40;;;;;;4832214;29;20245;-64
2021/03/27 09:04:50;;;;;;;3.00;1.70;;;17.90;52.10;;;;;;4859665;29;20193;-68
2021/03/27 09:07:18;;;;;;;3.90;1.30;;;18.00;51.90;;;;;;4821975;29;20176;-65
2021/03/27 09:09:46;;;;;;;2.10;0.85;;;18.00;52.00;;;;;;4821348;29;20194;-64
2021/03/27 09:12:23;;;;;;;4.40;1.60;;;17.90;52.00;;;;;;4845743;29;20201;-66
2021/03/27 09:15:11;;;;;;;2.45;1.35;;;17.90;52.20;;;;;;4860051;29;20182;-67
2021/03/27 09:17:45;;;;;;;3.78;1.02;;;17.80;52.10;;;;;;4859424;29;20174;-65
2021/03/27 09:20:20;;;;;;;1.63;1.20;;;17.80;52.30;;;;;;4860126;29;20209;-67
2021/03/27 09:22:50;;;;;;;2.17;1.25;;;17.80;52.30;;;;;;4858853;29;20176;-63
2021/03/27 09:26:03;;;;;;;3.20;1.38;;;17.70;52.30;;;;;;4858510;29;20265;-68
2021/03/27 09:28:38;;;;;;;4.25;1.30;;;17.70;52.20;;;;;;4830599;29;20201;-65
2021/03/27 09:31:22;;;;;;;1.95;1.30;;;17.80;52.20;;;;;;4859438;29;20185;-67
2021/03/27 09:34:00;;;;;;;4.90;1.40;;;17.80;52.20;;;;;;4860000;29;20257;-65
2021/03/27 09:37:02;;;;;;;7.25;1.92;;;18.00;52.10;;;;;;4858700;29;20186;-67
2021/03/27 09:39:43;;;;;;;3.67;1.30;;;18.30;51.70;;;;;;4826745;29;20229;-64
2021/03/27 09:42:43;;;;;;;3.05;1.27;;;18.40;51.50;;;;;;4861745;29;20322;-66
2021/03/27 09:45:16;;;;;;;2.40;1.30;;;18.70;51.30;;;;;;4861770;29;20541;-65
2021/03/27 09:47:55;;;;;;;3.80;1.42;;;19.00;50.70;;;;;;4862216;29;20170;-66
2021/03/27 09:50:39;;;;;;;3.65;1.38;;;19.50;50.00;;;;;;4846636;29;20186;-65
2021/03/27 09:53:25;;;;;;;1.65;1.00;;;19.90;49.40;;;;;;4861731;29;20685;-66
2021/03/27 09:56:01;;;;;;;5.13;1.77;;;20.20;48.90;;;;;;4862400;29;20218;-65
2021/03/27 09:58:49;;;;;;;2.05;1.15;;;20.30;48.60;;;;;;4863104;29;20642;-65
2021/03/27 10:01:24;;;;;;;3.72;0.90;;;20.40;48.50;;;;;;4861387;29;20237;-65
2021/03/27 10:04:29;;;;;;;3.28;1.00;;;20.50;48.50;;;;;;4862385;29;20578;-64
2021/03/27 10:07:16;;;;;;;2.47;1.38;;;20.50;48.40;;;;;;4865688;29;20181;-67
2021/03/27 10:10:09;;;;;;;4.40;1.50;;;20.40;48.50;;;;;;4862240;29;20306;-63
2021/03/27 10:12:58;;;;;;;3.17;1.20;;;20.40;48.80;;;;;;4862829;29;20685;-67
2021/03/27 10:15:37;;;;;;;4.07;1.30;;;20.30;48.90;;;;;;4862058;29;20175;-66
2021/03/27 10:18:29;;;;;;;2.35;1.05;;;20.40;49.00;;;;;;4861895;29;20181;-67
2021/03/27 10:21:14;;;;;;;2.45;1.40;;;20.30;48.90;;;;;;4845718;29;20305;-66
2021/03/27 10:23:54;;;;;;;4.10;1.30;;;20.30;49.00;;;;;;4861622;29;20192;-66
2021/03/27 10:26:29;;;;;;;3.17;1.38;;;20.20;49.20;;;;;;4861441;29;20264;-66
2021/03/27 10:29:04;;;;;;;3.15;1.00;;;20.20;49.40;;;;;;4861138;29;20173;-66
2021/03/27 10:31:44;;;;;;;2.90;1.23;;;20.10;49.40;;;;;;4861324;29;20185;-64
2021/03/27 10:34:27;;;;;;;3.58;1.05;;;20.10;49.70;;;;;;4860923;29;20573;-66
2021/03/27 10:36:58;;;;;;;3.63;1.65;;;20.00;49.70;;;;;;4861621;29;20181;-69
2021/03/27 10:39:40;;;;;;;2.20;1.23;;;19.90;49.90;;;;;;4861320;29;20549;-67
2021/03/27 10:42:25;;;;;;;2.97;1.15;;;19.80;50.00;;;;;;4860854;29;20186;-68
2021/03/27 10:45:13;;;;;;;3.33;1.80;;;19.80;50.10;;;;;;4862376;29;20244;-68
2021/03/27 10:48:03;;;;;;;3.10;1.40;;;19.80;50.20;;;;;;4862249;29;20182;-65
2021/03/27 10:51:03;;;;;;;4.85;1.23;;;19.70;50.20;;;;;;4861565;29;20178;-68
2021/03/27 10:53:37;;;;;;;2.55;1.38;;;19.70;50.30;;;;;;4860988;29;20180;-67
2021/03/27 10:56:31;;;;;;;2.33;1.17;;;19.80;50.30;;;;;;4860370;29;20177;-64
2021/03/27 10:59:18;;;;;;;2.67;1.10;;;19.70;50.40;;;;;;4858527;29;20552;-68
2021/03/27 11:01:58;;;;;;;6.28;1.20;;;19.70;50.30;;;;;;4874481;29;20228;-68
2021/03/27 11:04:40;;;;;;;1.63;0.90;;;19.80;50.20;;;;;;4856600;29;20177;-69
2021/03/27 11:07:25;;;;;;;1.92;1.05;;;19.70;50.10;;;;;;4864085;29;20181;-67
2021/03/27 11:10:25;;;;;;;2.45;1.30;;;19.70;50.10;;;;;;4877218;29;20587;-68
2021/03/27 11:13:09;;;;;;;3.05;1.00;;;19.70;50.00;;;;;;4850956;29;20182;-67
2021/03/27 11:15:52;;;;;;;2.92;0.95;;;19.70;50.00;;;;;;4880208;29;20173;-68
2021/03/27 11:18:39;;;;;;;2.92;1.10;;;19.70;50.10;;;;;;4884180;29;20181;-68
2021/03/27 11:21:31;;;;;;;1.60;0.90;;;19.70;49.90;;;;;;4898998;29;20216;-68
2021/03/27 11:24:23;;;;;;;2.38;0.98;;;19.80;49.80;;;;;;4881776;29;20191;-67
2021/03/27 11:26:54;;;;;;;2.55;1.05;;;19.90;49.60;;;;;;4866652;29;20173;-67
2021/03/27 11:29:38;;;;;;;2.75;1.25;;;19.80;49.40;;;;;;4898643;29;20311;-66
2021/03/27 11:32:07;;;;;;;3.40;0.98;;;19.80;49.30;;;;;;4881801;29;20172;-71
2021/03/27 11:35:01;;;;;;;2.83;1.10;;;19.60;49.50;;;;;;4881919;29;20176;-73
2021/03/27 11:37:45;;;;;;;1.80;1.13;;;19.60;49.60;;;;;;4860817;29;20178;-68
2021/03/27 11:40:48;;;;;;;3.78;1.20;;;19.40;49.80;;;;;;4860253;29;20213;-69
2021/03/27 11:43:13;;;;;;;2.65;1.15;;;19.30;50.00;;;;;;4807556;29;20185;-71
2021/03/27 11:45:41;;;;;;;1.95;1.20;;;19.30;50.00;;;;;;4853256;29;20210;-70
2021/03/27 11:48:25;;;;;;;2.10;0.95;;;19.20;49.90;;;;;;4844828;29;20249;-68
2021/03/27 11:51:28;;;;;;;2.78;1.05;;;19.10;50.00;;;;;;4845148;29;20209;-69
2021/03/27 11:54:15;;;;;;;3.10;1.23;;;19.10;50.10;;;;;;4860838;29;20642;-66
2021/03/27 11:57:19;;;;;;;2.22;1.02;;;19.00;50.30;;;;;;4861029;29;20238;-67
2021/03/27 12:03:26;;;;;;;3.42;1.10;;;18.90;50.00;;;;;;4861486;29;20244;-68
2021/03/27 12:06:12;;;;;;;2.83;1.13;;;19.00;49.90;;;;;;4842257;29;20269;-67
2021/03/27 12:09:08;;;;;;;4.47;1.35;;;19.00;49.80;;;;;;4859944;29;20772;-68
2021/03/27 12:11:51;;;;;;;3.65;1.35;;;19.00;49.70;;;;;;4860872;29;20222;-68
2021/03/27 12:14:52;;;;;;;2.60;1.00;;;19.10;49.70;;;;;;4860499;29;20194;-69
2021/03/27 12:17:39;;;;;;;2.83;1.20;;;19.20;49.30;;;;;;4828350;29;20233;-68
2021/03/27 12:20:32;;;;;;;3.55;1.13;;;19.30;49.40;;;;;;4860145;29;20266;-68
2021/03/27 12:23:03;;;;;;;2.83;0.98;;;19.30;49.20;;;;;;4861025;29;20181;-68
2021/03/27 12:25:42;;;;;;;2.70;1.08;;;19.30;49.20;;;;;;4859550;29;20181;-68
2021/03/27 12:28:16;;;;;;;3.55;1.35;;;19.20;49.30;;;;;;4859239;29;20187;-67
2021/03/27 12:31:17;;;;;;;1.75;1.33;;;19.10;49.40;;;;;;4860503;29;20173;-68
2021/03/27 12:34:17;;;;;;;4.20;1.25;;;19.10;49.60;;;;;;4835385;29;20234;-66
2021/03/27 12:37:09;;;;;;;3.10;0.85;;;19.00;49.60;;;;;;4859490;29;20245;-67
2021/03/27 12:39:44;;;;;;;3.20;1.23;;;19.00;49.60;;;;;;4859236;29;20214;-67
2021/03/27 12:42:46;;;;;;;4.22;1.35;;;19.10;49.60;;;;;;4858723;29;20177;-67
2021/03/27 12:45:45;;;;;;;3.97;1.23;;;19.20;49.60;;;;;;4843522;29;20189;-67
2021/03/27 12:48:25;;;;;;;3.10;1.38;;;19.30;49.40;;;;;;4843585;29;20174;-65
2021/03/27 12:51:13;;;;;;;4.03;1.05;;;19.30;49.40;;;;;;4859346;29;20634;-66
2021/03/27 12:54:16;;;;;;;3.40;1.20;;;19.40;49.40;;;;;;4859187;29;20182;-65
2021/03/27 12:57:09;;;;;;;3.70;1.10;;;19.30;49.60;;;;;;4859711;29;20178;-66
2021/03/27 12:59:46;;;;;;;2.03;1.08;;;19.20;49.80;;;;;;4858893;29;20206;-66
2021/03/27 13:02:23;;;;;;;2.42;1.13;;;19.30;50.00;;;;;;4871105;29;20228;-66
2021/03/27 13:05:07;;;;;;;1.77;1.02;;;19.20;49.90;;;;;;4877558;29;20180;-66
2021/03/27 13:07:49;;;;;;;2.38;1.08;;;19.40;49.80;;;;;;4878567;29;20272;-66
2021/03/27 13:10:26;;;;;;;2.95;1.35;;;19.50;49.60;;;;;;4887154;29;20268;-66
2021/03/27 13:13:03;;;;;;;2.13;0.95;;;19.70;49.50;;;;;;4865850;29;20588;-69
2021/03/27 13:16:02;;;;;;;3.58;1.50;;;19.70;49.50;;;;;;4899356;29;20263;-71
2021/03/27 13:18:33;;;;;;;2.65;1.23;;;19.80;49.60;;;;;;4886921;29;20172;-69
2021/03/27 13:21:08;;;;;;;2.53;1.10;;;19.90;49.40;;;;;;4884761;29;20214;-69
2021/03/27 13:23:42;;;;;;;2.03;0.80;;;20.00;49.20;;;;;;4900472;29;20203;-68
2021/03/27 13:26:11;;;;;;;2.97;1.10;;;20.10;49.10;;;;;;4885223;29;20213;-71
2021/03/27 13:29:31;;;;;;;4.30;1.42;;;20.00;49.10;;;;;;4884377;29;20177;-67
2021/03/27 13:31:57;;;;;;;3.75;1.30;;;20.00;49.10;;;;;;4882607;29;20196;-68
2021/03/27 13:34:46;;;;;;;6.50;1.88;;;19.90;49.20;;;;;;4884264;29;20628;-69
2021/03/27 13:37:13;;;;;;;2.63;1.27;;;19.70;49.30;;;;;;4900400;29;20207;-67
2021/03/27 13:39:45;;;;;;;2.65;1.10;;;19.50;49.50;;;;;;4884062;29;20217;-68
2021/03/27 13:42:30;;;;;;;3.05;1.52;;;19.40;49.70;;;;;;4884575;29;20179;-65
2021/03/27 13:45:08;;;;;;;3.40;1.25;;;19.40;50.00;;;;;;4883473;29;20661;-68
2021/03/27 13:47:46;;;;;;;1.58;0.82;;;19.30;49.80;;;;;;4900671;29;20255;-68
2021/03/27 13:50:46;;;;;;;5.88;1.25;;;19.20;49.80;;;;;;4885224;29;20208;-68
2021/03/27 13:53:34;;;;;;;3.80;1.50;;;19.20;49.80;;;;;;4900166;29;20659;-71
2021/03/27 13:56:22;;;;;;;2.40;1.23;;;19.20;50.00;;;;;;4886299;29;20252;-69
2021/03/27 13:59:00;;;;;;;2.85;1.15;;;19.10;50.00;;;;;;4898862;29;20275;-70
2021/03/27 14:01:40;;;;;;;3.08;1.13;;;19.00;50.00;;;;;;4877639;29;20312;-70
2021/03/27 14:04:30;;;;;;;2.50;1.13;;;18.90;49.80;;;;;;4849977;29;20268;-70
2021/03/27 14:07:02;;;;;;;2.67;1.50;;;18.90;49.90;;;;;;4864598;29;20717;-68
2021/03/27 14:09:36;;;;;;;3.33;1.15;;;19.20;49.50;;;;;;4850541;29;20176;-72
2021/03/27 14:12:36;;;;;;;2.80;1.30;;;19.40;49.20;;;;;;4880548;29;20199;-71